NZQN/ZQN METAR and TAF weather

Enter ICAO airport designator
Station Type Date Time Source
NZQN METAR UTC NOAA

Error!


Station Type Date Time Source
NZQN Decoded METAR UTC NOAA

Error!

Station Type Date Time Source
NZQN TAF 2020/01/21 11:03 UTC NOAA

TAF NZQN 211006Z 2111/2205 16012KT 9999 -RA SCT040
BECMG 2112/2114 VRB02KT
TEMPO 2117/2121 7000 RA
BECMG 2200/2202 25010KT

Example: see airport list